createdAt,value
2018-12-03T00:02:22.272Z,11.33
2018-12-03T00:04:53.106Z,11.32
2018-12-03T00:07:22.913Z,11.35
2018-12-03T00:09:52.760Z,11.37
2018-12-03T00:12:22.615Z,11.35
2018-12-03T00:14:52.472Z,11.40
2018-12-03T00:17:22.341Z,11.34
2018-12-03T00:19:52.320Z,11.32
2018-12-03T00:22:22.180Z,11.30
2018-12-03T00:24:52.049Z,11.26
2018-12-03T00:27:21.921Z,11.24
2018-12-03T00:29:51.772Z,11.23
2018-12-03T00:32:21.640Z,11.21
2018-12-03T00:34:51.561Z,11.22
2018-12-03T00:37:21.681Z,11.22
2018-12-03T00:39:51.697Z,11.24
2018-12-03T00:42:21.493Z,11.33
2018-12-03T00:44:51.397Z,11.33
2018-12-03T00:47:21.217Z,11.37
2018-12-03T00:49:51.098Z,11.31
2018-12-03T00:52:20.946Z,11.43
2018-12-03T00:54:50.791Z,11.48
2018-12-03T00:57:20.569Z,11.50
2018-12-03T00:59:50.484Z,11.48
2018-12-03T01:02:25.623Z,11.44
2018-12-03T01:04:55.539Z,11.42
2018-12-03T01:07:25.429Z,11.37
2018-12-03T01:09:55.297Z,11.33
2018-12-03T01:12:25.188Z,11.28
2018-12-03T01:14:55.079Z,11.29
2018-12-03T01:17:25.027Z,11.24
2018-12-03T01:19:54.864Z,11.27
2018-12-03T01:22:24.738Z,11.26
2018-12-03T01:24:54.574Z,11.26
2018-12-03T01:27:24.516Z,11.35
2018-12-03T01:29:54.441Z,11.32
2018-12-03T01:32:24.485Z,11.30
2018-12-03T01:34:54.357Z,11.26
2018-12-03T01:37:24.157Z,11.23
2018-12-03T01:39:53.972Z,11.24
2018-12-03T01:42:23.779Z,11.26
2018-12-03T01:44:53.593Z,11.28
2018-12-03T01:47:23.461Z,11.27
2018-12-03T01:49:53.339Z,11.34
2018-12-03T01:52:23.233Z,11.39
2018-12-03T01:54:53.049Z,11.51
2018-12-03T01:57:22.870Z,11.54
2018-12-03T01:59:52.691Z,11.54
2018-12-03T02:02:22.557Z,11.53
2018-12-03T02:04:52.423Z,11.51
2018-12-03T02:07:22.300Z,11.56
2018-12-03T02:09:52.197Z,11.59
2018-12-03T02:12:22.001Z,11.62
2018-12-03T02:14:51.917Z,11.72
2018-12-03T02:17:21.742Z,11.65
2018-12-03T02:19:51.625Z,11.61
2018-12-03T02:22:21.472Z,11.58
2018-12-03T02:24:51.368Z,11.51
2018-12-03T02:27:21.200Z,11.44
2018-12-03T02:29:51.048Z,11.39
2018-12-03T02:32:20.949Z,11.40
2018-12-03T02:34:50.834Z,11.36
2018-12-03T02:37:20.666Z,11.29
2018-12-03T02:39:50.546Z,11.29
2018-12-03T02:42:20.375Z,11.24
2018-12-03T02:44:50.356Z,11.25
2018-12-03T02:47:20.232Z,11.32
2018-12-03T02:49:50.396Z,11.49
2018-12-03T02:52:20.244Z,11.51
2018-12-03T02:54:50.204Z,11.49
2018-12-03T02:57:20.068Z,11.58
2018-12-03T02:59:50.003Z,11.62
2018-12-03T03:02:19.829Z,11.66
2018-12-03T03:04:49.755Z,11.66
2018-12-03T03:07:19.621Z,11.66
2018-12-03T03:09:49.512Z,11.67
2018-12-03T03:12:19.357Z,11.63
2018-12-03T03:14:49.264Z,11.65
2018-12-03T03:17:19.125Z,11.63
2018-12-03T03:19:48.939Z,11.56
2018-12-03T03:22:18.720Z,11.47
2018-12-03T03:24:48.694Z,11.40
2018-12-03T03:27:18.536Z,11.46
2018-12-03T03:29:48.397Z,11.40
2018-12-03T03:32:18.266Z,11.39
2018-12-03T03:34:48.098Z,11.35
2018-12-03T03:37:17.885Z,11.31
2018-12-03T03:39:47.732Z,11.37
2018-12-03T03:42:17.630Z,11.50
2018-12-03T03:44:47.457Z,11.69
2018-12-03T03:47:17.241Z,11.66
2018-12-03T03:49:47.085Z,11.62
2018-12-03T03:52:16.964Z,11.60
2018-12-03T03:54:46.801Z,11.70
2018-12-03T03:57:16.596Z,11.70
2018-12-03T03:59:46.436Z,11.86
2018-12-03T04:02:16.309Z,11.84
2018-12-03T04:04:46.585Z,11.87
2018-12-03T04:07:16.411Z,11.92
2018-12-03T04:09:46.291Z,11.87
2018-12-03T04:12:16.156Z,11.96
2018-12-03T04:14:46.022Z,12.01
2018-12-03T04:17:15.847Z,12.04
2018-12-03T04:19:45.656Z,12.03
2018-12-03T04:22:15.501Z,12.08
2018-12-03T04:24:45.620Z,12.18
2018-12-03T04:27:15.552Z,12.18
2018-12-03T04:29:45.553Z,12.17
2018-12-03T04:32:15.448Z,12.17
2018-12-03T04:34:45.625Z,12.12
2018-12-03T04:37:15.565Z,12.12
2018-12-03T04:39:45.569Z,12.14
2018-12-03T04:42:15.465Z,12.13
2018-12-03T04:44:45.625Z,12.15
2018-12-03T04:47:15.496Z,12.27
2018-12-03T04:49:45.412Z,12.28
2018-12-03T04:52:15.300Z,12.28
2018-12-03T04:54:45.196Z,12.26
2018-12-03T04:57:15.112Z,12.23
2018-12-03T04:59:44.909Z,12.24
2018-12-03T05:02:14.761Z,12.29
2018-12-03T05:04:44.677Z,12.32
2018-12-03T05:07:14.579Z,12.41
2018-12-03T05:09:44.352Z,12.52
2018-12-03T05:12:14.206Z,12.50
2018-12-03T05:14:44.078Z,12.49
2018-12-03T05:17:13.942Z,12.48
2018-12-03T05:19:44.012Z,12.39
2018-12-03T05:22:13.847Z,12.36
2018-12-03T05:24:43.904Z,12.37
2018-12-03T05:27:13.853Z,12.38
2018-12-03T05:29:43.896Z,12.48
2018-12-03T05:32:13.812Z,12.50
2018-12-03T05:34:43.972Z,12.54
2018-12-03T05:37:13.864Z,12.56
2018-12-03T05:39:43.939Z,12.56
2018-12-03T05:42:13.812Z,12.57
2018-12-03T05:44:43.901Z,12.73
2018-12-03T05:47:13.750Z,12.67
2018-12-03T05:49:43.974Z,12.66
2018-12-03T05:52:13.829Z,12.75
2018-12-03T05:54:43.894Z,12.84
2018-12-03T05:57:13.790Z,12.75
2018-12-03T05:59:43.576Z,12.66
2018-12-03T06:02:13.381Z,12.59
2018-12-03T06:04:43.214Z,12.69
2018-12-03T06:07:13.034Z,12.68
2018-12-03T06:09:42.840Z,12.86
2018-12-03T06:12:12.635Z,12.86
2018-12-03T06:14:42.468Z,12.82
2018-12-03T06:17:12.257Z,12.70
2018-12-03T06:19:42.084Z,12.69
2018-12-03T06:22:11.892Z,12.67
2018-12-03T06:24:41.715Z,12.66
2018-12-03T06:27:11.528Z,12.64
2018-12-03T06:29:41.317Z,12.60
2018-12-03T06:32:11.140Z,12.53
2018-12-03T06:34:40.945Z,12.44
2018-12-03T06:37:10.780Z,12.40
2018-12-03T06:39:40.568Z,12.26
2018-12-03T06:42:10.408Z,12.34
2018-12-03T06:44:40.188Z,12.40
2018-12-03T06:47:10.897Z,12.29
2018-12-03T06:49:40.749Z,12.27
2018-12-03T06:52:10.572Z,12.13
2018-12-03T06:54:40.363Z,12.37
2018-12-03T06:57:10.192Z,12.30
2018-12-03T06:59:39.987Z,12.37
2018-12-03T07:02:09.861Z,12.37
2018-12-03T07:04:39.764Z,12.27
2018-12-03T07:07:09.544Z,12.12
2018-12-03T07:09:39.369Z,12.14
2018-12-03T07:12:09.232Z,12.17
2018-12-03T07:14:39.069Z,12.25
2018-12-03T07:17:08.900Z,12.26
2018-12-03T07:19:38.725Z,12.39
2018-12-03T07:22:08.595Z,12.40
2018-12-03T07:24:38.429Z,12.47
2018-12-03T07:27:08.260Z,12.57
2018-12-03T07:29:38.056Z,12.68
2018-12-03T07:32:07.895Z,12.80
2018-12-03T07:34:37.677Z,12.81
2018-12-03T07:37:07.496Z,12.99
2018-12-03T07:39:37.361Z,13.23
2018-12-03T07:42:07.250Z,13.30
2018-12-03T07:44:37.281Z,13.40
2018-12-03T07:47:06.921Z,13.39
2018-12-03T07:49:36.759Z,13.43
2018-12-03T07:52:07.021Z,13.43
2018-12-03T07:54:36.797Z,13.47
2018-12-03T07:57:06.760Z,13.54
2018-12-03T07:59:36.520Z,13.63
2018-12-03T08:02:06.705Z,13.67
2018-12-03T08:04:36.548Z,13.80
2018-12-03T08:07:06.443Z,13.86
2018-12-03T08:09:36.281Z,13.91
2018-12-03T08:12:06.136Z,13.94
2018-12-03T08:14:35.904Z,14.01
2018-12-03T08:17:05.993Z,14.04
2018-12-03T08:19:35.836Z,14.12
2018-12-03T08:22:06.813Z,14.12
2018-12-03T08:24:36.619Z,14.06
2018-12-03T08:27:06.657Z,14.05
2018-12-03T08:29:36.415Z,14.04
2018-12-03T08:32:06.460Z,14.03
2018-12-03T08:34:36.413Z,14.03
2018-12-03T08:37:06.434Z,14.05
2018-12-03T08:39:36.310Z,14.12
2018-12-03T08:42:06.626Z,14.16
2018-12-03T08:45:08.439Z,14.26
2018-12-03T08:47:38.364Z,14.28
2018-12-03T08:50:14.592Z,14.23
2018-12-03T08:52:44.385Z,14.20
2018-12-03T08:55:14.329Z,14.19
2018-12-03T08:57:44.380Z,14.18
2018-12-03T09:00:18.862Z,14.14
2018-12-03T09:02:57.415Z,14.12
2018-12-03T09:05:29.332Z,14.07
2018-12-03T09:07:59.147Z,14.11
2018-12-03T09:10:28.960Z,14.09
2018-12-03T09:13:04.871Z,14.15
2018-12-03T09:15:34.742Z,14.21
2018-12-03T09:18:04.910Z,14.24
2018-12-03T09:20:34.866Z,14.34
2018-12-03T09:23:05.140Z,14.40
2018-12-03T09:25:35.009Z,14.41
2018-12-03T09:28:05.591Z,14.41
2018-12-03T09:30:35.447Z,14.36
2018-12-03T09:33:05.916Z,14.40
2018-12-03T09:35:35.744Z,14.42
2018-12-03T09:38:06.276Z,14.41
2018-12-03T09:40:36.140Z,14.45
2018-12-03T09:43:06.621Z,14.47
2018-12-03T09:45:36.500Z,14.50
2018-12-03T09:48:06.973Z,14.48
2018-12-03T09:50:36.810Z,14.47
2018-12-03T09:53:06.999Z,14.54
2018-12-03T09:55:36.853Z,14.55
2018-12-03T09:58:10.323Z,14.58
2018-12-03T10:00:40.654Z,14.60
2018-12-03T10:03:20.267Z,14.63
2018-12-03T10:05:53.164Z,14.67
2018-12-03T10:08:26.437Z,14.71
2018-12-03T10:11:02.425Z,14.70
2018-12-03T10:13:32.956Z,14.77
2018-12-03T10:16:02.776Z,14.75
2018-12-03T10:18:32.759Z,14.74
2018-12-03T10:21:03.786Z,14.74
2018-12-03T10:23:33.737Z,14.80
2018-12-03T10:26:07.821Z,14.85
2018-12-03T10:28:37.751Z,14.88
2018-12-03T10:31:12.888Z,14.88
2018-12-03T10:33:42.792Z,14.96
2018-12-03T10:36:12.857Z,14.94
2018-12-03T10:38:44.947Z,14.92
2018-12-03T10:41:30.339Z,14.95
2018-12-03T10:44:02.352Z,14.98
2018-12-03T10:46:32.180Z,15.01
2018-12-03T10:49:06.161Z,14.97
2018-12-03T10:51:36.120Z,15.02
2018-12-03T10:54:06.330Z,15.07
2018-12-03T10:56:36.566Z,15.09
2018-12-03T10:59:06.998Z,15.11
2018-12-03T11:01:42.330Z,15.20
2018-12-03T11:04:18.293Z,15.38
2018-12-03T11:06:48.513Z,15.51
2018-12-03T11:09:18.674Z,15.54
2018-12-03T11:11:49.736Z,15.46
2018-12-03T11:14:19.610Z,15.35
2018-12-03T11:16:49.711Z,15.35
2018-12-03T11:19:19.674Z,15.42
2018-12-03T11:21:50.212Z,15.37
2018-12-03T11:24:20.122Z,15.35
2018-12-03T11:26:53.903Z,15.35
2018-12-03T11:29:24.105Z,15.36
2018-12-03T11:31:54.324Z,15.33
2018-12-03T11:34:25.640Z,15.28
2018-12-03T11:36:57.973Z,15.30
2018-12-03T11:39:44.545Z,15.23
2018-12-03T11:42:14.781Z,15.20
2018-12-03T11:44:44.583Z,15.19
2018-12-03T11:47:14.430Z,15.18
2018-12-03T11:49:45.564Z,15.12
2018-12-03T11:52:15.600Z,15.14
2018-12-03T11:54:45.661Z,15.28
2018-12-03T11:57:15.518Z,15.33
2018-12-03T11:59:45.433Z,15.34
2018-12-03T12:02:15.625Z,15.41
2018-12-03T12:04:45.424Z,15.37
2018-12-03T12:07:15.307Z,15.36
2018-12-03T12:09:45.184Z,15.30
2018-12-03T12:12:17.024Z,15.31
2018-12-03T12:14:46.874Z,15.29
2018-12-03T12:17:16.792Z,15.25
2018-12-03T12:19:46.745Z,15.20
2018-12-03T12:22:16.596Z,15.23
2018-12-03T12:24:46.470Z,15.29
2018-12-03T12:27:17.056Z,15.31
2018-12-03T12:29:46.971Z,15.35
2018-12-03T12:32:16.872Z,15.37
2018-12-03T12:34:46.691Z,15.43
2018-12-03T12:37:16.630Z,15.44
2018-12-03T12:39:46.524Z,15.58
2018-12-03T12:42:16.392Z,15.71
2018-12-03T12:44:46.180Z,15.73
2018-12-03T12:47:16.153Z,15.73
2018-12-03T12:49:46.189Z,15.73
2018-12-03T12:52:16.188Z,15.74
2018-12-03T12:54:46.023Z,15.76
2018-12-03T12:57:15.949Z,15.78
2018-12-03T12:59:45.852Z,15.80
2018-12-03T13:02:16.657Z,15.83
2018-12-03T13:04:46.509Z,16.02
2018-12-03T13:07:16.489Z,16.24
2018-12-03T13:09:46.340Z,16.37
2018-12-03T13:12:16.340Z,16.39
2018-12-03T13:14:46.249Z,16.50
2018-12-03T13:17:16.165Z,16.48
2018-12-03T13:19:46.139Z,16.51
2018-12-03T13:22:16.021Z,16.37
2018-12-03T13:24:45.916Z,16.34
2018-12-03T13:27:15.812Z,16.49
2018-12-03T13:29:46.244Z,16.78
2018-12-03T13:32:16.253Z,16.42
2018-12-03T13:34:46.053Z,16.27
2018-12-03T13:37:16.009Z,16.17
2018-12-03T13:39:45.892Z,16.14
2018-12-03T13:42:15.929Z,16.05
2018-12-03T13:44:45.721Z,15.92
2018-12-03T13:47:15.674Z,15.81
2018-12-03T13:49:45.561Z,15.75
2018-12-03T13:52:15.513Z,15.62
2018-12-03T13:54:45.485Z,15.53
2018-12-03T13:57:15.294Z,15.53
2018-12-03T13:59:45.223Z,15.59
2018-12-03T14:02:15.236Z,15.55
2018-12-03T14:04:45.204Z,15.54
2018-12-03T14:07:20.843Z,15.53
2018-12-03T14:10:01.188Z,15.57
2018-12-03T14:12:41.135Z,15.54
2018-12-03T14:15:22.288Z,15.42
2018-12-03T14:18:02.885Z,15.49
2018-12-03T14:20:36.893Z,15.54
2018-12-03T14:23:09.564Z,15.51
2018-12-03T14:25:40.537Z,15.53
2018-12-03T14:28:10.476Z,15.51
2018-12-03T14:30:40.349Z,15.45
2018-12-03T14:33:10.152Z,15.39
2018-12-03T14:35:40.050Z,15.53
2018-12-03T14:38:09.929Z,16.30
2018-12-03T14:40:40.867Z,19.24
2018-12-03T14:43:10.779Z,21.75
2018-12-03T14:45:40.513Z,21.75
2018-12-03T14:48:10.408Z,19.96
2018-12-03T14:50:40.219Z,18.43
2018-12-03T14:53:11.065Z,17.61
2018-12-03T14:55:40.832Z,16.85
2018-12-03T14:58:10.696Z,16.49
2018-12-03T15:00:40.712Z,16.33
2018-12-03T15:03:10.546Z,16.24
2018-12-03T15:05:40.425Z,16.18
2018-12-03T15:08:10.353Z,16.07
2018-12-03T15:10:40.108Z,15.96
2018-12-03T15:13:10.008Z,15.81
2018-12-03T15:15:39.976Z,15.71
2018-12-03T15:18:09.794Z,15.66
2018-12-03T15:20:39.824Z,15.63
2018-12-03T15:23:09.646Z,15.61
2018-12-03T15:25:39.448Z,15.53
2018-12-03T15:28:09.288Z,15.48
2018-12-03T15:30:39.181Z,15.58
2018-12-03T15:33:09.008Z,15.48
2018-12-03T15:35:38.892Z,15.45
2018-12-03T15:38:08.746Z,15.50
2018-12-03T15:40:38.616Z,15.59
2018-12-03T15:43:08.484Z,15.49
2018-12-03T15:45:38.956Z,15.55
2018-12-03T15:48:08.744Z,15.61
2018-12-03T15:50:38.536Z,15.51
2018-12-03T15:53:08.449Z,15.48
2018-12-03T15:55:38.316Z,15.43
2018-12-03T15:58:08.120Z,15.38
2018-12-03T16:00:38.409Z,15.37
2018-12-03T16:03:08.500Z,15.35
2018-12-03T16:05:38.356Z,15.30
2018-12-03T16:08:08.238Z,15.29
2018-12-03T16:10:38.122Z,15.31
2018-12-03T16:13:08.031Z,15.50
2018-12-03T16:15:38.005Z,15.55
2018-12-03T16:18:09.706Z,15.69
2018-12-03T16:20:39.581Z,15.65
2018-12-03T16:23:09.746Z,15.58
2018-12-03T16:25:39.550Z,15.56
2018-12-03T16:28:09.448Z,15.55
2018-12-03T16:30:39.280Z,15.41
2018-12-03T16:33:09.187Z,15.42
2018-12-03T16:35:39.107Z,15.62
2018-12-03T16:38:08.918Z,15.65
2018-12-03T16:40:38.680Z,15.66
2018-12-03T16:43:08.569Z,15.57
2018-12-03T16:45:38.372Z,15.54
2018-12-03T16:48:08.304Z,15.34
2018-12-03T16:50:38.193Z,15.15
2018-12-03T16:53:08.076Z,15.16
2018-12-03T16:55:37.872Z,15.10
2018-12-03T16:58:07.737Z,15.17
2018-12-03T17:00:37.587Z,15.02
2018-12-03T17:03:07.464Z,14.85
2018-12-03T17:05:37.384Z,14.81
2018-12-03T17:08:07.509Z,14.85
2018-12-03T17:10:37.365Z,14.92
2018-12-03T17:13:07.342Z,14.87
2018-12-03T17:15:37.240Z,14.89
2018-12-03T17:18:09.231Z,14.95
2018-12-03T17:20:50.467Z,14.97
2018-12-03T17:23:25.151Z,14.91
2018-12-03T17:25:55.233Z,14.84
2018-12-03T17:28:25.087Z,14.96
2018-12-03T17:30:55.005Z,15.01
2018-12-03T17:33:24.973Z,14.76
2018-12-03T17:35:54.925Z,14.35
2018-12-03T17:38:25.077Z,14.04
2018-12-03T17:40:55.653Z,13.79
2018-12-03T17:43:25.576Z,13.56
2018-12-03T17:45:55.949Z,13.43
2018-12-03T17:48:26.357Z,13.43
2018-12-03T17:50:56.276Z,13.17
2018-12-03T17:53:26.128Z,13.06
2018-12-03T17:55:56.005Z,12.86
2018-12-03T17:58:27.873Z,12.73
2018-12-03T18:00:57.859Z,12.62
2018-12-03T18:03:27.837Z,12.58
2018-12-03T18:05:57.669Z,12.48
2018-12-03T18:08:27.471Z,12.40
2018-12-03T18:10:57.302Z,12.31
2018-12-03T18:13:27.234Z,12.24
2018-12-03T18:15:57.403Z,12.02
2018-12-03T18:18:27.590Z,11.84
2018-12-03T18:20:57.531Z,11.68
2018-12-03T18:23:27.381Z,11.64
2018-12-03T18:25:57.320Z,11.53
2018-12-03T18:28:27.234Z,11.47
2018-12-03T18:30:57.345Z,11.31
2018-12-03T18:33:27.560Z,11.30
2018-12-03T18:35:57.414Z,11.17
2018-12-03T18:38:27.411Z,11.24
2018-12-03T18:41:03.159Z,11.21
2018-12-03T18:43:29.745Z,11.16
2018-12-03T18:45:59.689Z,11.11
2018-12-03T18:48:29.634Z,10.94
2018-12-03T18:50:59.744Z,10.98
2018-12-03T18:53:30.666Z,10.87
2018-12-03T18:56:00.473Z,10.85
2018-12-03T18:58:41.464Z,10.74
2018-12-03T19:01:11.378Z,10.69
2018-12-03T19:03:41.626Z,10.76
2018-12-03T19:06:11.982Z,10.84
2018-12-03T19:08:41.809Z,10.84
2018-12-03T19:11:11.646Z,10.83
2018-12-03T19:13:41.582Z,10.80
2018-12-03T19:16:11.476Z,10.80
2018-12-03T19:18:41.608Z,10.88
2018-12-03T19:21:11.494Z,10.88
2018-12-03T19:23:41.421Z,11.09
2018-12-03T19:26:11.314Z,11.32
2018-12-03T19:28:41.156Z,11.37
2018-12-03T19:31:11.104Z,11.39
2018-12-03T19:33:43.036Z,11.39
2018-12-03T19:36:27.890Z,11.45
2018-12-03T19:38:57.729Z,11.47
2018-12-03T19:41:28.645Z,11.43
2018-12-03T19:43:58.418Z,11.48
2018-12-03T19:46:28.539Z,11.53
2018-12-03T19:48:58.591Z,11.49
2018-12-03T19:51:28.578Z,11.50
2018-12-03T19:53:58.930Z,11.48
2018-12-03T19:56:28.829Z,11.48
2018-12-03T19:58:58.725Z,11.42
2018-12-03T20:01:28.730Z,11.45
2018-12-03T20:03:58.880Z,11.52
2018-12-03T20:06:28.855Z,11.57
2018-12-03T20:08:59.119Z,11.54
2018-12-03T20:11:29.617Z,11.52
2018-12-03T20:13:59.539Z,11.51
2018-12-03T20:16:29.710Z,11.55
2018-12-03T20:18:59.652Z,11.52
2018-12-03T20:21:29.865Z,11.50
2018-12-03T20:24:03.273Z,11.53
2018-12-03T20:27:01.872Z,11.53
2018-12-03T20:29:39.427Z,11.50
2018-12-03T20:32:18.900Z,11.54
2018-12-03T20:34:56.661Z,11.51
2018-12-03T20:38:37.596Z,11.49
2018-12-03T20:41:12.624Z,11.52
2018-12-03T20:43:43.178Z,11.46
2018-12-03T20:46:27.807Z,11.37
2018-12-03T20:49:12.158Z,11.41
2018-12-03T20:51:43.257Z,11.44
2018-12-03T20:54:13.167Z,11.47
2018-12-03T20:56:43.116Z,11.39
2018-12-03T20:59:13.384Z,11.49
2018-12-03T21:01:45.536Z,11.61
2018-12-03T21:04:17.804Z,11.61
2018-12-03T21:06:47.827Z,11.65
2018-12-03T21:09:17.808Z,11.72
2018-12-03T21:11:47.709Z,11.74
2018-12-03T21:14:20.127Z,11.76
2018-12-03T21:16:49.684Z,11.72
2018-12-03T21:19:19.527Z,11.65
2018-12-03T21:21:50.609Z,11.72
2018-12-03T21:24:20.487Z,11.89
2018-12-03T21:26:50.380Z,11.89
2018-12-03T21:29:20.415Z,11.92
2018-12-03T21:31:50.294Z,11.98
2018-12-03T21:34:20.325Z,11.95
2018-12-03T21:36:50.244Z,11.94
2018-12-03T21:39:20.076Z,11.93
2018-12-03T21:41:50.113Z,11.90
2018-12-03T21:44:20.014Z,11.90
2018-12-03T21:46:49.913Z,11.93
2018-12-03T21:49:21.592Z,11.88
2018-12-03T21:51:51.494Z,11.88
2018-12-03T21:54:21.410Z,11.86
2018-12-03T21:56:52.901Z,11.89
2018-12-03T21:59:22.779Z,11.88
2018-12-03T22:01:52.696Z,11.93
2018-12-03T22:04:22.605Z,11.89
2018-12-03T22:06:52.500Z,11.90
2018-12-03T22:09:22.388Z,11.75
2018-12-03T22:11:52.218Z,11.52
2018-12-03T22:14:22.009Z,11.46
2018-12-03T22:16:52.065Z,11.51
2018-12-03T22:19:21.973Z,11.59
2018-12-03T22:21:51.955Z,11.64
2018-12-03T22:24:21.790Z,11.66
2018-12-03T22:26:51.677Z,11.69
2018-12-03T22:29:21.580Z,11.67
2018-12-03T22:31:51.709Z,11.59
2018-12-03T22:34:23.030Z,11.55
2018-12-03T22:36:52.980Z,11.57
2018-12-03T22:39:22.816Z,11.57
2018-12-03T22:41:52.824Z,11.67
2018-12-03T22:44:22.724Z,11.67
2018-12-03T22:46:52.549Z,11.66
2018-12-03T22:49:22.404Z,11.65
2018-12-03T22:51:52.399Z,11.74
2018-12-03T22:54:22.228Z,11.78
2018-12-03T22:56:52.124Z,11.81
2018-12-03T22:59:21.944Z,11.78
2018-12-03T23:01:51.933Z,11.83
2018-12-03T23:04:21.820Z,11.75
2018-12-03T23:06:53.746Z,11.77
2018-12-03T23:09:23.855Z,11.72
2018-12-03T23:11:54.321Z,11.50
2018-12-03T23:14:24.193Z,11.19
2018-12-03T23:16:54.136Z,10.95
2018-12-03T23:19:24.056Z,10.77
2018-12-03T23:21:53.969Z,10.64
2018-12-03T23:24:24.062Z,10.60
2018-12-03T23:26:54.169Z,10.47
2018-12-03T23:29:24.095Z,10.42
2018-12-03T23:31:54.125Z,10.38
2018-12-03T23:34:24.026Z,10.36
2018-12-03T23:36:53.823Z,10.31
2018-12-03T23:39:23.684Z,10.32
2018-12-03T23:41:53.664Z,10.38
2018-12-03T23:44:23.500Z,10.37
2018-12-03T23:46:53.437Z,10.25
2018-12-03T23:49:23.401Z,10.10
2018-12-03T23:51:53.285Z,10.08
2018-12-03T23:54:23.245Z,10.05
2018-12-03T23:56:53.465Z,10.04
2018-12-03T23:59:23.246Z,10.09
